createdAt,value
2019-02-21T00:01:01.901Z,100794.36
2019-02-21T00:03:32.710Z,100787.19
2019-02-21T00:06:03.527Z,100786.63
2019-02-21T00:08:34.179Z,100779.48
2019-02-21T00:11:05.037Z,100785.27
2019-02-21T00:13:35.666Z,100784.06
2019-02-21T00:16:06.441Z,100780.69
2019-02-21T00:18:37.089Z,100775.05
2019-02-21T00:21:07.948Z,100780.64
2019-02-21T00:23:38.702Z,100770.78
2019-02-21T00:26:10.915Z,100765.64
2019-02-21T00:28:41.743Z,100769.91
2019-02-21T00:31:12.599Z,100766.84
2019-02-21T00:33:43.354Z,100769.84
2019-02-21T00:36:14.002Z,100767.44
2019-02-21T00:38:44.741Z,100775.05
2019-02-21T00:41:16.517Z,100770.56
2019-02-21T00:43:47.491Z,100755.52
2019-02-21T00:46:18.246Z,100757.86
2019-02-21T00:48:48.879Z,100763.39
2019-02-21T00:51:19.754Z,100760.18
2019-02-21T00:53:50.387Z,100765.05
2019-02-21T00:56:21.161Z,100755.52
2019-02-21T00:58:51.793Z,100754.28
2019-02-21T01:01:22.668Z,100750.82
2019-02-21T01:03:53.524Z,100753.47
2019-02-21T01:06:24.260Z,100750.06
2019-02-21T01:08:55.029Z,100741.22
2019-02-21T01:11:25.888Z,100746.02
2019-02-21T01:13:56.725Z,100748.39
2019-02-21T01:16:27.496Z,100742.37
2019-02-21T01:18:58.147Z,100735.80
2019-02-21T01:21:28.989Z,100743.41
2019-02-21T01:23:59.770Z,100742.20
2019-02-21T01:26:30.512Z,100743.05
2019-02-21T01:29:01.369Z,100738.59
2019-02-21T01:31:32.107Z,100741.16
2019-02-21T01:34:02.876Z,100736.89
2019-02-21T01:36:33.521Z,100736.99
2019-02-21T01:39:05.475Z,100740.41
2019-02-21T01:41:36.957Z,100743.78
2019-02-21T01:44:07.836Z,100746.78
2019-02-21T01:46:38.691Z,100740.95
2019-02-21T01:49:09.547Z,100738.82
2019-02-21T01:51:40.286Z,100734.48
2019-02-21T01:54:10.832Z,100736.39
2019-02-21T01:56:41.707Z,100738.82
2019-02-21T01:59:12.365Z,100736.91
2019-02-21T02:01:43.301Z,100735.84
2019-02-21T02:04:14.052Z,100744.50
2019-02-21T02:06:44.929Z,100735.52
2019-02-21T02:09:15.688Z,100733.73
2019-02-21T02:11:46.333Z,100734.03
2019-02-21T02:14:17.071Z,100730.61
2019-02-21T02:16:47.924Z,100736.66
2019-02-21T02:19:18.698Z,100740.84
2019-02-21T02:21:49.346Z,100740.52
2019-02-21T02:24:20.204Z,100745.25
2019-02-21T02:26:50.960Z,100741.19
2019-02-21T02:29:21.590Z,100737.56
2019-02-21T02:31:53.290Z,100734.58
2019-02-21T02:34:23.730Z,100743.21
2019-02-21T02:36:54.381Z,100737.45
2019-02-21T02:39:25.141Z,100741.14
2019-02-21T02:41:57.016Z,100738.75
2019-02-21T02:44:27.871Z,100738.63
2019-02-21T02:46:58.627Z,100734.61
2019-02-21T02:49:29.260Z,100734.77
2019-02-21T02:52:00.112Z,100735.36
2019-02-21T02:54:30.878Z,100737.05
2019-02-21T02:57:01.621Z,100732.58
2019-02-21T02:59:40.905Z,100738.69
2019-02-21T03:02:04.578Z,100744.75
2019-02-21T03:04:35.446Z,100739.72
2019-02-21T03:07:06.193Z,100741.42
2019-02-21T03:09:36.737Z,100741.05
2019-02-21T03:12:07.601Z,100747.05
2019-02-21T03:14:38.449Z,100744.16
2019-02-21T03:17:08.207Z,100735.96
2019-02-21T03:19:38.611Z,100730.42
2019-02-21T03:22:09.466Z,100728.83
2019-02-21T03:24:40.249Z,100723.54
2019-02-21T03:27:10.892Z,100724.02
2019-02-21T03:29:41.435Z,100725.81
2019-02-21T03:32:12.533Z,100715.99
2019-02-21T03:34:43.460Z,100722.23
2019-02-21T03:37:14.149Z,100713.23
2019-02-21T03:39:45.068Z,100708.45
2019-02-21T03:42:16.844Z,100694.80
2019-02-21T03:44:47.703Z,100698.58
2019-02-21T03:47:18.456Z,100701.79
2019-02-21T03:49:49.311Z,100697.48
2019-02-21T03:52:20.277Z,100697.36
2019-02-21T03:54:50.901Z,100696.77
2019-02-21T03:57:20.883Z,100698.84
2019-02-21T03:59:51.408Z,100700.77
2019-02-21T04:02:22.159Z,100695.09
2019-02-21T04:04:52.810Z,100698.73
2019-02-21T04:07:23.665Z,100689.50
2019-02-21T04:09:54.301Z,100689.03
2019-02-21T04:12:25.072Z,100690.82
2019-02-21T04:14:55.708Z,100691.54
2019-02-21T04:17:26.579Z,100691.84
2019-02-21T04:19:57.333Z,100692.74
2019-02-21T04:22:28.088Z,100686.98
2019-02-21T04:24:58.746Z,100695.34
2019-02-21T04:27:29.475Z,100689.25
2019-02-21T04:30:00.409Z,100696.00
2019-02-21T04:32:31.319Z,100699.23
2019-02-21T04:35:01.269Z,100694.63
2019-02-21T04:37:31.791Z,100693.55
2019-02-21T04:40:02.447Z,100696.77
2019-02-21T04:42:34.510Z,100693.44
2019-02-21T04:45:05.968Z,100700.17
2019-02-21T04:47:36.445Z,100694.70
2019-02-21T04:50:07.309Z,100702.52
2019-02-21T04:52:38.155Z,100698.90
2019-02-21T04:55:08.910Z,100705.18
2019-02-21T04:57:39.667Z,100695.95
2019-02-21T05:00:12.447Z,100701.42
2019-02-21T05:02:42.913Z,100690.66
2019-02-21T05:05:13.665Z,100706.89
2019-02-21T05:07:44.400Z,100700.98
2019-02-21T05:10:15.275Z,100695.09
2019-02-21T05:12:46.132Z,100702.73
2019-02-21T05:15:16.885Z,100705.08
2019-02-21T05:17:47.534Z,100703.72
2019-02-21T05:20:18.394Z,100708.75
2019-02-21T05:22:49.157Z,100700.55
2019-02-21T05:25:19.882Z,100703.33
2019-02-21T05:27:51.189Z,100709.94
2019-02-21T05:30:22.242Z,100700.08
2019-02-21T05:33:06.380Z,100701.34
2019-02-21T05:35:50.822Z,100705.81
2019-02-21T05:38:32.333Z,100702.91
2019-02-21T05:41:13.825Z,100705.42
2019-02-21T05:43:47.016Z,100703.59
2019-02-21T05:46:25.556Z,100699.86
2019-02-21T05:49:07.053Z,100696.25
2019-02-21T05:51:45.166Z,100690.65
2019-02-21T05:54:32.576Z,100692.81
2019-02-21T05:57:07.724Z,100684.50
2019-02-21T05:59:49.131Z,100686.91
2019-02-21T06:02:33.590Z,100686.80
2019-02-21T06:05:15.202Z,100684.73
2019-02-21T06:07:47.615Z,100695.84
2019-02-21T06:10:23.241Z,100696.29
2019-02-21T06:12:55.408Z,100693.77
2019-02-21T06:15:33.525Z,100699.44
2019-02-21T06:18:05.931Z,100697.46
2019-02-21T06:20:43.938Z,100697.92
2019-02-21T06:23:16.221Z,100697.48
2019-02-21T06:26:03.971Z,100701.50
2019-02-21T06:28:36.358Z,100697.48
2019-02-21T06:31:08.737Z,100698.78
2019-02-21T06:33:39.383Z,100698.62
2019-02-21T06:36:10.154Z,100696.84
2019-02-21T06:38:40.810Z,100699.59
2019-02-21T06:41:11.664Z,100693.39
2019-02-21T06:43:42.297Z,100696.13
2019-02-21T06:46:13.873Z,100692.48
2019-02-21T06:48:44.741Z,100686.45
2019-02-21T06:51:15.376Z,100656.59
2019-02-21T06:53:45.345Z,100693.20
2019-02-21T06:56:15.880Z,100677.20
2019-02-21T06:58:46.512Z,100682.69
2019-02-21T07:01:26.407Z,100685.77
2019-02-21T07:03:49.553Z,100678.78
2019-02-21T07:06:31.360Z,100685.64
2019-02-21T07:08:54.207Z,100684.47
2019-02-21T07:11:25.452Z,100684.02
2019-02-21T07:13:56.169Z,100683.57
2019-02-21T07:16:26.921Z,100685.23
2019-02-21T07:18:57.674Z,100682.52
2019-02-21T07:21:28.329Z,100686.92
2019-02-21T07:23:59.182Z,100684.04
2019-02-21T07:26:30.038Z,100681.46
2019-02-21T07:29:00.878Z,100675.67
2019-02-21T07:31:32.612Z,100674.28
2019-02-21T07:34:03.407Z,100664.52
2019-02-21T07:36:34.281Z,100661.30
2019-02-21T07:39:16.907Z,100673.49
2019-02-21T07:41:38.229Z,100662.36
2019-02-21T07:44:12.033Z,100665.88
2019-02-21T07:46:41.268Z,100665.58
2019-02-21T07:49:11.835Z,100670.92
2019-02-21T07:51:42.690Z,100664.81
2019-02-21T07:54:13.530Z,100668.81
2019-02-21T07:56:44.180Z,100663.86
2019-02-21T07:59:14.354Z,100671.47
2019-02-21T08:01:44.886Z,100667.73
2019-02-21T08:04:15.052Z,100662.00
2019-02-21T08:06:45.576Z,100662.25
2019-02-21T08:09:15.640Z,100658.06
2019-02-21T08:11:46.165Z,100668.52
2019-02-21T08:14:16.797Z,100669.52
2019-02-21T08:16:46.777Z,100658.28
2019-02-21T08:19:17.405Z,100655.61
2019-02-21T08:21:48.236Z,100660.63
2019-02-21T08:24:19.199Z,100668.33
2019-02-21T08:26:50.074Z,100649.69
2019-02-21T08:29:20.949Z,100663.02
2019-02-21T08:31:51.992Z,100661.00
2019-02-21T08:34:27.024Z,100649.08
2019-02-21T08:36:57.468Z,100664.52
2019-02-21T08:39:27.447Z,100651.95
2019-02-21T08:41:57.961Z,100650.67
2019-02-21T08:44:29.084Z,100669.64
2019-02-21T08:47:00.605Z,100676.11
2019-02-21T08:49:31.265Z,100666.68
2019-02-21T08:52:02.112Z,100662.12
2019-02-21T08:54:32.870Z,100670.52
2019-02-21T08:57:03.705Z,100674.81
2019-02-21T08:59:34.254Z,100663.22
2019-02-21T09:02:05.111Z,100679.70
2019-02-21T09:04:35.089Z,100666.44
2019-02-21T09:07:05.615Z,100671.02
2019-02-21T09:09:36.261Z,100669.67
2019-02-21T09:12:06.815Z,100686.16
2019-02-21T09:14:37.673Z,100673.46
2019-02-21T09:17:08.218Z,100692.38
2019-02-21T09:19:38.275Z,100682.75
2019-02-21T09:22:08.812Z,100686.93
2019-02-21T09:24:42.443Z,100683.80
2019-02-21T09:27:11.646Z,100677.86
2019-02-21T09:29:42.294Z,100672.69
2019-02-21T09:32:12.741Z,100664.70
2019-02-21T09:34:44.502Z,100661.74
2019-02-21T09:37:14.876Z,100675.35
2019-02-21T09:39:45.207Z,100671.39
2019-02-21T09:42:15.759Z,100666.85
2019-02-21T09:44:46.614Z,100669.74
2019-02-21T09:47:18.299Z,100688.74
2019-02-21T09:49:49.142Z,100681.20
2019-02-21T09:52:19.105Z,100675.63
2019-02-21T09:54:49.708Z,100684.02
2019-02-21T09:57:20.466Z,100678.98
2019-02-21T09:59:50.448Z,100678.98
2019-02-21T10:02:23.084Z,100686.77
2019-02-21T10:05:04.222Z,100691.02
2019-02-21T10:07:25.034Z,100689.00
2019-02-21T10:09:54.885Z,100692.34
2019-02-21T10:12:25.418Z,100690.96
2019-02-21T10:14:55.957Z,100691.13
2019-02-21T10:17:25.940Z,100697.07
2019-02-21T10:19:56.453Z,100702.34
2019-02-21T10:22:26.413Z,100697.81
2019-02-21T10:24:57.173Z,100693.80
2019-02-21T10:27:27.981Z,100705.69
2019-02-21T10:29:57.856Z,100706.16
2019-02-21T10:32:28.383Z,100716.23
2019-02-21T10:34:58.345Z,100717.58
2019-02-21T10:37:28.867Z,100718.08
2019-02-21T10:39:58.828Z,100716.06
2019-02-21T10:42:29.351Z,100714.31
2019-02-21T10:44:59.312Z,100714.31
2019-02-21T10:47:30.858Z,100713.81
2019-02-21T10:50:01.493Z,100708.77
2019-02-21T10:52:32.042Z,100699.73
2019-02-21T10:55:02.021Z,100713.05
2019-02-21T10:57:32.543Z,100721.72
2019-02-21T11:00:03.075Z,100709.07
2019-02-21T11:02:33.543Z,100696.40
2019-02-21T11:05:03.604Z,100728.14
2019-02-21T11:07:34.026Z,100719.30
2019-02-21T11:10:04.902Z,100715.02
2019-02-21T11:12:35.228Z,100710.59
2019-02-21T11:15:09.340Z,100714.09
2019-02-21T11:17:39.905Z,100692.73
2019-02-21T11:20:11.298Z,100692.26
2019-02-21T11:22:41.601Z,100678.97
2019-02-21T11:25:12.678Z,100700.09
2019-02-21T11:27:42.919Z,100714.89
2019-02-21T11:30:16.423Z,100725.22
2019-02-21T11:32:46.556Z,100718.95
2019-02-21T11:35:16.542Z,100725.09
2019-02-21T11:37:47.682Z,100728.14
2019-02-21T11:40:18.533Z,100737.59
2019-02-21T11:42:49.150Z,100718.06
2019-02-21T11:45:20.469Z,100742.77
2019-02-21T11:47:51.710Z,100723.41
2019-02-21T11:50:22.453Z,100731.65
2019-02-21T11:52:52.326Z,100736.80
2019-02-21T11:55:24.895Z,100731.78
2019-02-21T11:57:55.446Z,100733.31
2019-02-21T12:00:26.939Z,100733.77
2019-02-21T12:02:57.481Z,100732.97
2019-02-21T12:05:31.483Z,100736.64
2019-02-21T12:07:59.381Z,100725.90
2019-02-21T12:10:29.341Z,100719.38
2019-02-21T12:12:59.869Z,100732.77
2019-02-21T12:15:29.830Z,100728.50
2019-02-21T12:18:00.343Z,100736.16
2019-02-21T12:20:30.311Z,100751.47
2019-02-21T12:23:00.613Z,100741.89
2019-02-21T12:25:31.180Z,100744.95
2019-02-21T12:28:01.244Z,100751.66
2019-02-21T12:30:33.416Z,100738.84
2019-02-21T12:33:03.850Z,100757.73
2019-02-21T12:35:33.804Z,100750.95
2019-02-21T12:38:04.336Z,100761.02
2019-02-21T12:40:36.501Z,100763.77
2019-02-21T12:43:06.149Z,100780.53
2019-02-21T12:45:36.112Z,100769.05
2019-02-21T12:48:07.557Z,100778.07
2019-02-21T12:50:44.420Z,100782.77
2019-02-21T12:53:10.597Z,100775.38
2019-02-21T12:55:40.944Z,100782.31
2019-02-21T12:58:10.793Z,100773.34
2019-02-21T13:00:41.332Z,100787.03
2019-02-21T13:03:11.177Z,100780.86
2019-02-21T13:05:43.729Z,100787.31
2019-02-21T13:08:13.571Z,100794.38
2019-02-21T13:10:44.137Z,100795.42
2019-02-21T13:13:14.098Z,100795.09
2019-02-21T13:15:44.620Z,100795.34
2019-02-21T13:18:16.111Z,100789.51
2019-02-21T13:20:46.623Z,100798.53
2019-02-21T13:23:16.706Z,100803.31
2019-02-21T13:25:47.315Z,100802.39
2019-02-21T13:28:17.294Z,100806.55
2019-02-21T13:30:47.825Z,100807.90
2019-02-21T13:33:17.771Z,100807.69
2019-02-21T13:35:52.778Z,100822.28
2019-02-21T13:38:20.279Z,100817.77
2019-02-21T13:40:50.243Z,100826.30
2019-02-21T13:43:20.756Z,100823.73
2019-02-21T13:45:51.501Z,100830.57
2019-02-21T13:48:22.360Z,100838.17
2019-02-21T13:50:52.721Z,100839.91
2019-02-21T13:53:22.684Z,100840.27
2019-02-21T13:55:53.208Z,100842.66
2019-02-21T13:58:23.943Z,100853.13
2019-02-21T14:00:53.912Z,100841.97
2019-02-21T14:03:24.428Z,100850.87
2019-02-21T14:06:03.232Z,100847.05
2019-02-21T14:08:26.157Z,100858.29
2019-02-21T14:10:56.008Z,100849.92
2019-02-21T14:13:26.541Z,100862.11
2019-02-21T14:15:56.604Z,100858.27
2019-02-21T14:18:27.435Z,100867.06
2019-02-21T14:20:58.086Z,100863.80
2019-02-21T14:23:28.190Z,100854.59
2019-02-21T14:25:58.881Z,100870.14
2019-02-21T14:28:28.737Z,100869.23
2019-02-21T14:30:59.243Z,100871.45
2019-02-21T14:33:29.112Z,100870.84
2019-02-21T14:35:59.525Z,100873.28
2019-02-21T14:38:29.503Z,100885.84
2019-02-21T14:40:59.912Z,100878.59
2019-02-21T14:43:30.454Z,100888.16
2019-02-21T14:46:00.435Z,100888.40
2019-02-21T14:48:31.775Z,100892.24
2019-02-21T14:51:02.530Z,100889.94
2019-02-21T14:53:33.061Z,100884.16
2019-02-21T14:56:03.637Z,100889.77
2019-02-21T14:58:34.162Z,100895.40
2019-02-21T15:01:04.913Z,100897.70
2019-02-21T15:03:35.175Z,100899.25
2019-02-21T15:06:05.931Z,100902.52
2019-02-21T15:08:36.581Z,100904.31
2019-02-21T15:11:07.230Z,100902.34
2019-02-21T15:13:37.185Z,100917.13
2019-02-21T15:16:07.611Z,100914.92
2019-02-21T15:18:37.576Z,100920.45
2019-02-21T15:21:08.097Z,100917.97
2019-02-21T15:23:38.734Z,100931.80
2019-02-21T15:26:08.713Z,100937.69
2019-02-21T15:28:39.235Z,100935.30
2019-02-21T15:31:09.086Z,100934.78
2019-02-21T15:33:39.619Z,100937.52
2019-02-21T15:36:09.963Z,100941.38
2019-02-21T15:38:40.614Z,100947.00
2019-02-21T15:41:10.577Z,100955.97
2019-02-21T15:43:40.978Z,100958.38
2019-02-21T15:46:11.649Z,100958.03
2019-02-21T15:48:44.683Z,100969.13
2019-02-21T15:51:15.303Z,100969.80
2019-02-21T15:53:45.368Z,100970.57
2019-02-21T15:56:15.892Z,100969.80
2019-02-21T15:58:46.644Z,100975.97
2019-02-21T16:01:16.607Z,100977.40
2019-02-21T16:03:47.132Z,100968.86
2019-02-21T16:06:17.199Z,100967.59
2019-02-21T16:08:47.719Z,100972.20
2019-02-21T16:11:17.679Z,100973.91
2019-02-21T16:13:48.460Z,100968.03
2019-02-21T16:16:19.471Z,100967.51
2019-02-21T16:18:50.102Z,100980.56
2019-02-21T16:21:20.967Z,100971.61
2019-02-21T16:23:50.732Z,100976.55
2019-02-21T16:26:21.138Z,100975.45
2019-02-21T16:28:51.116Z,100983.30
2019-02-21T16:31:21.539Z,100984.91
2019-02-21T16:33:53.212Z,100989.08
2019-02-21T16:36:23.966Z,100982.26
2019-02-21T16:38:58.321Z,100988.75
2019-02-21T16:41:37.458Z,100983.89
2019-02-21T16:44:08.502Z,100982.60
2019-02-21T16:46:40.890Z,100983.65
2019-02-21T16:49:13.388Z,100989.18
2019-02-21T16:51:44.549Z,100985.18
2019-02-21T16:54:15.198Z,100972.30
2019-02-21T16:56:46.054Z,100982.03
2019-02-21T16:59:16.893Z,100985.09
2019-02-21T17:01:47.547Z,100974.34
2019-02-21T17:04:17.514Z,100974.94
2019-02-21T17:06:59.522Z,100984.65
2019-02-21T17:09:30.341Z,100984.74
2019-02-21T17:12:01.096Z,100986.86
2019-02-21T17:14:31.846Z,100983.20
2019-02-21T17:17:01.726Z,100980.31
2019-02-21T17:19:32.230Z,100982.85
2019-02-21T17:22:02.210Z,100972.45
2019-02-21T17:24:32.619Z,100982.69
2019-02-21T17:27:04.127Z,100981.23
2019-02-21T17:29:34.446Z,100985.85
2019-02-21T17:32:05.299Z,100975.95
2019-02-21T17:34:35.631Z,100980.99
2019-02-21T17:37:06.484Z,100979.55
2019-02-21T17:39:37.039Z,100986.25
2019-02-21T17:42:07.009Z,100989.67
2019-02-21T17:44:37.420Z,100987.36
2019-02-21T17:47:07.387Z,100984.28
2019-02-21T17:49:38.824Z,100983.75
2019-02-21T17:52:09.594Z,100984.44
2019-02-21T17:54:40.438Z,100988.29
2019-02-21T17:57:10.902Z,100975.66
2019-02-21T17:59:41.654Z,100988.70
2019-02-21T18:02:12.611Z,100986.81
2019-02-21T18:04:43.467Z,100989.98
2019-02-21T18:07:14.104Z,100995.11
2019-02-21T18:09:44.078Z,100999.53
2019-02-21T18:12:14.484Z,100999.97
2019-02-21T18:14:44.453Z,100996.89
2019-02-21T18:17:14.985Z,101005.16
2019-02-21T18:19:45.640Z,100999.62
2019-02-21T18:22:16.272Z,101007.86
2019-02-21T18:24:46.241Z,101006.83
2019-02-21T18:27:19.637Z,101010.32
2019-02-21T18:29:50.401Z,101009.37
2019-02-21T18:32:21.046Z,101007.64
2019-02-21T18:34:51.899Z,101009.65
2019-02-21T18:37:22.755Z,101012.70
2019-02-21T18:39:53.511Z,101018.95
2019-02-21T18:42:24.161Z,101010.67
2019-02-21T18:44:55.019Z,101016.91
2019-02-21T18:47:25.668Z,101018.95
2019-02-21T18:49:57.325Z,101012.19
2019-02-21T18:52:28.183Z,101020.86
2019-02-21T18:54:58.954Z,101019.18
2019-02-21T18:57:29.608Z,101016.59
2019-02-21T18:59:59.564Z,101022.50
2019-02-21T19:02:29.971Z,101018.13
2019-02-21T19:04:59.837Z,101029.19
2019-02-21T19:07:30.351Z,101023.63
2019-02-21T19:10:01.124Z,101025.64
2019-02-21T19:12:30.973Z,101027.19
2019-02-21T19:15:01.507Z,101042.09
2019-02-21T19:17:31.467Z,101037.41
2019-02-21T19:20:01.996Z,101036.36
2019-02-21T19:22:32.832Z,101037.73
2019-02-21T19:25:03.891Z,101028.86
2019-02-21T19:27:37.085Z,101041.90
2019-02-21T19:30:22.276Z,101043.23
2019-02-21T19:32:52.926Z,101038.42
2019-02-21T19:35:23.577Z,101043.66
2019-02-21T19:37:53.657Z,101040.15
2019-02-21T19:40:24.064Z,101038.86
2019-02-21T19:42:54.040Z,101039.09
2019-02-21T19:45:24.567Z,101044.15
2019-02-21T19:47:55.323Z,101049.02
2019-02-21T19:50:26.789Z,101051.97
2019-02-21T19:52:58.156Z,101049.65
2019-02-21T19:55:29.012Z,101045.52
2019-02-21T19:57:59.765Z,101044.16
2019-02-21T20:00:31.953Z,101049.16
2019-02-21T20:03:02.793Z,101051.13
2019-02-21T20:05:33.565Z,101041.30
2019-02-21T20:08:08.754Z,101046.88
2019-02-21T20:10:37.996Z,101045.63
2019-02-21T20:13:11.755Z,101052.08
2019-02-21T20:15:42.187Z,101046.05
2019-02-21T20:18:13.060Z,101050.23
2019-02-21T20:20:43.812Z,101042.29
2019-02-21T20:23:14.463Z,101043.50
2019-02-21T20:25:45.217Z,101038.56
2019-02-21T20:28:16.063Z,101046.44
2019-02-21T20:30:46.839Z,101045.45
2019-02-21T20:33:17.461Z,101052.40
2019-02-21T20:35:48.218Z,101048.97
2019-02-21T20:38:19.075Z,101063.86
2019-02-21T20:40:49.741Z,101050.84
2019-02-21T20:43:19.694Z,101055.53
2019-02-21T20:45:53.335Z,101056.12
2019-02-21T20:48:22.191Z,101065.78
2019-02-21T20:50:56.855Z,101064.42
2019-02-21T20:53:25.360Z,101066.52
2019-02-21T20:55:56.190Z,101065.97
2019-02-21T20:58:26.961Z,101063.31
2019-02-21T21:00:57.615Z,101061.17
2019-02-21T21:03:27.678Z,101076.14
2019-02-21T21:05:58.200Z,101070.98
2019-02-21T21:08:28.263Z,101080.50
2019-02-21T21:10:58.787Z,101077.96
2019-02-21T21:13:29.420Z,101085.05
2019-02-21T21:16:00.298Z,101087.61
2019-02-21T21:18:31.033Z,101084.39
2019-02-21T21:21:01.803Z,101086.80
2019-02-21T21:23:32.455Z,101084.30
2019-02-21T21:26:03.312Z,101092.39
2019-02-21T21:28:34.169Z,101092.07
2019-02-21T21:31:04.799Z,101092.34
2019-02-21T21:33:34.770Z,101094.50
2019-02-21T21:36:05.285Z,101094.18
2019-02-21T21:38:36.061Z,101103.00
2019-02-21T21:41:06.795Z,101109.92
2019-02-21T21:43:37.669Z,101106.05
2019-02-21T21:46:08.523Z,101110.38
2019-02-21T21:48:39.055Z,101114.98
2019-02-21T21:51:10.949Z,101115.83
2019-02-21T21:53:41.819Z,101108.89
2019-02-21T21:56:12.662Z,101111.93
2019-02-21T21:58:43.417Z,101112.38
2019-02-21T22:01:14.089Z,101114.90
2019-02-21T22:03:44.924Z,101119.66
2019-02-21T22:06:15.681Z,101123.61
2019-02-21T22:08:46.433Z,101124.24
2019-02-21T22:11:17.068Z,101127.14
2019-02-21T22:13:47.942Z,101122.48
2019-02-21T22:16:18.678Z,101126.27
2019-02-21T22:18:49.449Z,101115.17
2019-02-21T22:21:20.312Z,101119.92
2019-02-21T22:23:51.141Z,101124.95
2019-02-21T22:26:21.915Z,101122.63
2019-02-21T22:28:52.551Z,101119.53
2019-02-21T22:31:23.422Z,101118.56
2019-02-21T22:33:54.057Z,101119.28
2019-02-21T22:36:24.827Z,101121.70
2019-02-21T22:38:55.479Z,101120.11
2019-02-21T22:41:28.119Z,101113.89
2019-02-21T22:43:58.934Z,101116.56
2019-02-21T22:46:28.882Z,101125.05
2019-02-21T22:48:59.413Z,101124.64
2019-02-21T22:51:31.076Z,101120.33
2019-02-21T22:54:01.949Z,101119.66
2019-02-21T22:56:32.474Z,101127.56
2019-02-21T22:59:03.333Z,101129.31
2019-02-21T23:01:34.410Z,101129.75
2019-02-21T23:04:17.241Z,101137.38
2019-02-21T23:06:50.955Z,101132.53
2019-02-21T23:09:27.460Z,101135.05
2019-02-21T23:11:55.304Z,101139.41
2019-02-21T23:14:26.164Z,101140.91
2019-02-21T23:16:56.938Z,101139.89
2019-02-21T23:19:27.592Z,101134.12
2019-02-21T23:21:58.341Z,101133.50
2019-02-21T23:24:29.096Z,101136.06
2019-02-21T23:26:59.848Z,101132.96
2019-02-21T23:29:30.499Z,101131.80
2019-02-21T23:32:03.328Z,101132.81
2019-02-21T23:34:35.279Z,101139.99
2019-02-21T23:37:05.810Z,101141.20
2019-02-21T23:39:38.548Z,101146.05
2019-02-21T23:42:07.625Z,101140.67
2019-02-21T23:44:38.282Z,101142.50
2019-02-21T23:47:08.257Z,101134.36
2019-02-21T23:49:38.782Z,101138.08
2019-02-21T23:52:10.556Z,101131.87
2019-02-21T23:54:41.292Z,101134.02
2019-02-21T23:57:11.263Z,101139.02
2019-02-21T23:59:41.795Z,101136.95
